Time;durP1;ratioP1;P1;durP2;ratioP2;P2;SDS_P1;SDS_P2;PMS_P1;PMS_P2;Temp;Humidity;BMP_temperature;BMP_pressure;BME280_temperature;BME280_humidity;BME280_pressure;Samples;Min_cycle;Max_cycle;Signal;HPM_P1;HPM_P2
2021/01/25 00:00:16;;;;;;;10.38;8.00;;;3.00;99.90;;;;;;2070894;28;20041;-77
2021/01/25 00:01:17;;;;;;;9.90;8.27;;;3.00;99.90;;;;;;2079560;28;20047;-75
2021/01/25 00:02:18;;;;;;;13.85;7.90;;;3.00;99.90;;;;;;2070968;28;20099;-76
2021/01/25 00:03:18;;;;;;;9.77;8.35;;;3.00;99.90;;;;;;2071008;28;20071;-76
2021/01/25 00:04:19;;;;;;;12.57;8.18;;;3.00;99.90;;;;;;2072630;28;20025;-76
2021/01/25 00:05:20;;;;;;;14.38;7.93;;;3.00;99.90;;;;;;2070225;28;20030;-77
2021/01/25 00:06:20;;;;;;;11.30;8.88;;;3.00;99.90;;;;;;2079643;28;20021;-76
2021/01/25 00:07:21;;;;;;;9.68;8.35;;;3.10;99.90;;;;;;2078551;28;20717;-77
2021/01/25 00:08:21;;;;;;;12.27;8.30;;;3.10;99.90;;;;;;2070587;28;20108;-78
2021/01/25 00:09:22;;;;;;;12.05;7.93;;;3.10;99.90;;;;;;2062366;28;20084;-78
2021/01/25 00:10:22;;;;;;;17.05;8.90;;;3.10;99.90;;;;;;2070591;28;20026;-76
2021/01/25 00:11:23;;;;;;;9.10;7.43;;;3.10;99.90;;;;;;2079451;28;20029;-78
2021/01/25 00:12:23;;;;;;;8.40;7.55;;;3.10;99.90;;;;;;2079855;28;20080;-76
2021/01/25 00:13:24;;;;;;;11.50;8.27;;;3.10;99.90;;;;;;2070529;28;20101;-75
2021/01/25 00:14:25;;;;;;;11.10;8.55;;;3.10;99.90;;;;;;2070957;28;20033;-76
2021/01/25 00:15:25;;;;;;;10.57;8.63;;;3.10;99.90;;;;;;2079031;28;20048;-75
2021/01/25 00:16:26;;;;;;;12.15;8.27;;;3.10;99.90;;;;;;2079271;28;20036;-75
2021/01/25 00:17:26;;;;;;;13.23;8.50;;;3.10;99.90;;;;;;2079221;28;20025;-76
2021/01/25 00:18:27;;;;;;;14.43;9.30;;;3.10;99.90;;;;;;2078733;28;20028;-76
2021/01/25 00:19:27;;;;;;;12.30;7.78;;;3.00;99.90;;;;;;2079630;28;20465;-76
2021/01/25 00:20:28;;;;;;;10.60;7.35;;;3.10;99.90;;;;;;2078916;28;20017;-77
2021/01/25 00:21:29;;;;;;;13.85;8.82;;;3.10;99.90;;;;;;2070816;28;20029;-77
2021/01/25 00:22:29;;;;;;;12.75;7.75;;;3.10;99.90;;;;;;2070786;28;20037;-75
2021/01/25 00:23:30;;;;;;;17.55;8.55;;;3.00;99.90;;;;;;2079251;28;20033;-76
2021/01/25 00:24:30;;;;;;;14.48;9.07;;;3.10;99.90;;;;;;2070334;28;20026;-75
2021/01/25 00:25:31;;;;;;;11.80;7.47;;;3.10;99.90;;;;;;2070444;28;20061;-75
2021/01/25 00:26:31;;;;;;;13.98;8.07;;;3.10;99.90;;;;;;2070494;28;20029;-76
2021/01/25 00:27:32;;;;;;;11.90;7.97;;;3.10;99.90;;;;;;2070351;28;20025;-78
2021/01/25 00:28:33;;;;;;;13.88;8.48;;;3.10;99.90;;;;;;2070348;28;20061;-78
2021/01/25 00:29:33;;;;;;;11.45;8.23;;;3.10;99.90;;;;;;2070913;28;20022;-75
2021/01/25 00:30:34;;;;;;;17.83;8.02;;;3.10;99.90;;;;;;2079228;28;20464;-76
2021/01/25 00:31:34;;;;;;;13.18;8.55;;;3.10;99.90;;;;;;2079288;28;20091;-76
2021/01/25 00:32:35;;;;;;;13.50;8.13;;;3.10;99.90;;;;;;2078578;28;20032;-78
2021/01/25 00:33:35;;;;;;;14.88;8.05;;;3.10;99.90;;;;;;2079209;28;20052;-76
2021/01/25 00:34:38;;;;;;;12.20;8.50;;;3.20;99.90;;;;;;2079380;28;20104;-76
2021/01/25 00:35:38;;;;;;;12.90;8.55;;;3.20;99.90;;;;;;2078920;28;20040;-77
2021/01/25 00:36:39;;;;;;;16.02;8.95;;;3.20;99.90;;;;;;2079377;28;20026;-74
2021/01/25 00:37:40;;;;;;;12.25;8.05;;;3.20;99.90;;;;;;2078564;28;20476;-75
2021/01/25 00:38:40;;;;;;;12.73;7.90;;;3.20;99.90;;;;;;2070111;28;20022;-75
2021/01/25 00:39:41;;;;;;;12.52;8.13;;;3.20;99.90;;;;;;2070343;28;20512;-76
2021/01/25 00:40:42;;;;;;;13.25;8.10;;;3.20;99.90;;;;;;2079140;28;20252;-76
2021/01/25 00:41:42;;;;;;;14.68;9.10;;;3.20;99.90;;;;;;2077434;28;20029;-75
2021/01/25 00:42:43;;;;;;;14.77;8.68;;;3.20;99.90;;;;;;2074943;28;20026;-77
2021/01/25 00:43:45;;;;;;;12.65;8.05;;;3.20;99.90;;;;;;2079331;28;20029;-77
2021/01/25 00:44:45;;;;;;;11.52;8.88;;;3.20;99.90;;;;;;2070294;28;20026;-74
2021/01/25 00:45:46;;;;;;;14.13;8.93;;;3.20;99.90;;;;;;2070286;28;20029;-75
2021/01/25 00:46:46;;;;;;;13.07;8.73;;;3.20;99.90;;;;;;2069972;28;20473;-75
2021/01/25 00:47:47;;;;;;;10.95;8.57;;;3.20;99.90;;;;;;2070738;28;20034;-76
2021/01/25 00:48:48;;;;;;;12.43;7.55;;;3.20;99.90;;;;;;2069874;28;20057;-75
2021/01/25 00:49:48;;;;;;;11.55;8.30;;;3.20;99.90;;;;;;2079266;28;20068;-75
2021/01/25 00:50:49;;;;;;;12.52;7.63;;;3.20;99.90;;;;;;2079109;28;20022;-78
2021/01/25 00:51:50;;;;;;;11.30;7.68;;;3.20;99.90;;;;;;2079410;28;20097;-77
2021/01/25 00:52:50;;;;;;;9.80;7.50;;;3.20;99.90;;;;;;2079404;28;20056;-75
2021/01/25 00:53:51;;;;;;;9.07;7.25;;;3.20;99.90;;;;;;2079079;28;20040;-75
2021/01/25 00:54:51;;;;;;;10.90;7.72;;;3.20;99.90;;;;;;2079481;28;20083;-75
2021/01/25 00:55:52;;;;;;;12.50;8.43;;;3.20;99.90;;;;;;2078858;28;20076;-75
2021/01/25 00:56:53;;;;;;;12.38;8.23;;;3.20;99.90;;;;;;2078990;28;20026;-76
2021/01/25 00:57:53;;;;;;;11.63;7.32;;;3.20;99.90;;;;;;2079412;28;20469;-76
2021/01/25 00:58:54;;;;;;;8.98;7.20;;;3.20;99.90;;;;;;2079009;28;20022;-77
2021/01/25 00:59:54;;;;;;;9.35;7.18;;;3.20;99.90;;;;;;2079451;28;20025;-76
2021/01/25 01:00:55;;;;;;;9.35;6.82;;;3.20;99.90;;;;;;2079033;28;20034;-79
2021/01/25 01:01:56;;;;;;;9.38;7.13;;;3.20;99.90;;;;;;2070506;28;20026;-77
2021/01/25 01:02:56;;;;;;;7.40;6.47;;;3.20;99.90;;;;;;2070845;28;20034;-77
2021/01/25 01:03:57;;;;;;;8.25;6.90;;;3.20;99.90;;;;;;2078892;28;20495;-77
2021/01/25 01:04:57;;;;;;;8.73;6.28;;;3.30;99.90;;;;;;2079292;28;20377;-76
2021/01/25 01:05:59;;;;;;;8.52;6.40;;;3.20;99.90;;;;;;2078846;28;20104;-77
2021/01/25 01:06:59;;;;;;;7.65;6.45;;;3.30;99.90;;;;;;2078737;28;20108;-78
2021/01/25 01:08:00;;;;;;;8.43;6.45;;;3.30;99.90;;;;;;2078850;28;20025;-77
2021/01/25 01:09:00;;;;;;;8.63;6.40;;;3.30;99.90;;;;;;2079399;28;20037;-76
2021/01/25 01:10:03;;;;;;;8.40;6.60;;;3.30;99.90;;;;;;2079060;28;20025;-77
2021/01/25 01:11:03;;;;;;;8.43;6.30;;;3.30;99.90;;;;;;2079154;28;20017;-75
2021/01/25 01:12:04;;;;;;;7.78;5.93;;;3.30;99.90;;;;;;2078830;28;20021;-75
2021/01/25 01:13:05;;;;;;;8.10;6.53;;;3.30;99.90;;;;;;2079459;28;20388;-76
2021/01/25 01:14:05;;;;;;;11.70;7.65;;;3.30;99.90;;;;;;2070415;28;20791;-76
2021/01/25 01:15:11;;;;;;;7.13;6.00;;;3.30;99.90;;;;;;2070428;28;20053;-77
2021/01/25 01:16:11;;;;;;;9.98;6.95;;;3.30;99.90;;;;;;2078554;28;20036;-75
2021/01/25 01:17:12;;;;;;;10.45;6.18;;;3.30;99.90;;;;;;2078490;28;20536;-76
2021/01/25 01:18:12;;;;;;;7.30;6.35;;;3.30;99.90;;;;;;2078789;28;20029;-75
2021/01/25 01:19:13;;;;;;;10.77;6.97;;;3.30;99.90;;;;;;2070472;28;20022;-75
2021/01/25 01:20:14;;;;;;;7.00;6.30;;;3.30;99.90;;;;;;2070309;28;20516;-75
2021/01/25 01:21:14;;;;;;;9.43;6.40;;;3.30;99.90;;;;;;2079307;28;20515;-76
2021/01/25 01:22:15;;;;;;;8.55;5.97;;;3.30;99.90;;;;;;2078717;28;20037;-77
2021/01/25 01:23:15;;;;;;;7.07;5.57;;;3.30;99.90;;;;;;2078881;28;20096;-77
2021/01/25 01:24:16;;;;;;;10.20;5.95;;;3.30;99.90;;;;;;2078996;28;20037;-76
2021/01/25 01:25:17;;;;;;;10.40;6.38;;;3.30;99.90;;;;;;2078965;28;20029;-75
2021/01/25 01:26:18;;;;;;;6.82;5.80;;;3.30;99.90;;;;;;2078560;28;20112;-77
2021/01/25 01:27:19;;;;;;;8.32;5.53;;;3.30;99.90;;;;;;2078684;28;20033;-77
2021/01/25 01:28:19;;;;;;;11.05;6.25;;;3.30;99.90;;;;;;2078698;28;20053;-76
2021/01/25 01:29:20;;;;;;;8.20;6.13;;;3.30;99.90;;;;;;2070012;28;20104;-77
2021/01/25 01:30:21;;;;;;;7.65;6.10;;;3.30;99.90;;;;;;2070027;28;20033;-76
2021/01/25 01:31:22;;;;;;;8.95;6.40;;;3.30;99.90;;;;;;2069995;28;20444;-77
2021/01/25 01:32:23;;;;;;;7.38;6.45;;;3.30;99.90;;;;;;2070537;28;20567;-76
2021/01/25 01:33:23;;;;;;;10.07;6.72;;;3.30;99.90;;;;;;2078687;28;20033;-75
2021/01/25 01:34:24;;;;;;;8.52;6.57;;;3.30;99.90;;;;;;2070235;28;20044;-77
2021/01/25 01:35:24;;;;;;;7.80;6.63;;;3.30;99.90;;;;;;2070347;28;20030;-75
2021/01/25 01:36:25;;;;;;;10.07;7.05;;;3.30;99.90;;;;;;2078913;28;20186;-78
2021/01/25 01:37:26;;;;;;;8.55;6.00;;;3.20;99.90;;;;;;2069246;28;20026;-78
2021/01/25 01:38:26;;;;;;;6.82;5.85;;;3.30;99.90;;;;;;2069854;28;20057;-78
2021/01/25 01:39:27;;;;;;;8.90;7.18;;;3.30;99.90;;;;;;2078889;28;20481;-75
2021/01/25 01:40:27;;;;;;;8.00;6.53;;;3.30;99.90;;;;;;2079367;28;20030;-75
2021/01/25 01:41:33;;;;;;;6.68;5.97;;;3.30;99.90;;;;;;2078675;28;20032;-77
2021/01/25 01:42:35;;;;;;;9.07;7.47;;;3.30;99.90;;;;;;2079303;28;20525;-76
2021/01/25 01:43:35;;;;;;;7.53;6.03;;;3.20;99.90;;;;;;2078886;28;20041;-75
2021/01/25 01:44:36;;;;;;;9.85;6.97;;;3.30;99.90;;;;;;2080655;28;20018;-75
2021/01/25 01:45:36;;;;;;;8.65;6.38;;;3.20;99.90;;;;;;2080031;28;20204;-77
2021/01/25 01:46:41;;;;;;;7.75;6.43;;;3.30;99.90;;;;;;2071611;28;20172;-75
2021/01/25 01:47:42;;;;;;;7.80;6.55;;;3.30;99.90;;;;;;2071494;28;20029;-76
2021/01/25 01:48:43;;;;;;;11.07;7.03;;;3.30;99.90;;;;;;2080551;28;20017;-75
2021/01/25 01:49:44;;;;;;;7.85;6.60;;;3.30;99.90;;;;;;2080461;28;20021;-75
2021/01/25 01:50:45;;;;;;;8.35;6.30;;;3.30;99.90;;;;;;2080789;28;20380;-74
2021/01/25 01:51:46;;;;;;;8.70;6.88;;;3.20;99.90;;;;;;2071684;28;20026;-75
2021/01/25 01:52:47;;;;;;;9.40;5.82;;;3.30;99.90;;;;;;2071525;28;20018;-76
2021/01/25 01:53:48;;;;;;;7.88;6.68;;;3.20;99.90;;;;;;2071310;28;20025;-74
2021/01/25 01:54:50;;;;;;;7.40;6.63;;;3.30;99.90;;;;;;2080273;28;20068;-75
2021/01/25 01:55:51;;;;;;;7.80;6.60;;;3.30;99.90;;;;;;2071563;28;20087;-75
2021/01/25 01:56:52;;;;;;;8.63;6.15;;;3.20;99.90;;;;;;2080096;28;20026;-76
2021/01/25 01:57:53;;;;;;;11.25;6.95;;;3.20;99.90;;;;;;2071535;28;20385;-74
2021/01/25 01:58:54;;;;;;;7.28;6.10;;;3.20;99.90;;;;;;2071593;28;20034;-75
2021/01/25 01:59:55;;;;;;;12.68;7.25;;;3.20;99.90;;;;;;2080402;28;20523;-76
2021/01/25 02:00:55;;;;;;;9.05;6.95;;;3.20;99.90;;;;;;2080312;28;20029;-75
2021/01/25 02:01:56;;;;;;;7.05;6.03;;;3.20;99.90;;;;;;2080552;28;20030;-78
2021/01/25 02:02:57;;;;;;;8.02;5.80;;;3.20;99.90;;;;;;2080552;28;20034;-76
2021/01/25 02:03:58;;;;;;;12.00;6.07;;;3.30;99.90;;;;;;2071224;28;20087;-74
2021/01/25 02:04:59;;;;;;;11.98;6.82;;;3.20;99.90;;;;;;2071777;28;20477;-74
2021/01/25 02:06:02;;;;;;;7.80;6.88;;;3.30;99.90;;;;;;2071809;28;20405;-75
2021/01/25 02:07:05;;;;;;;7.30;5.95;;;3.30;99.90;;;;;;2070759;28;20631;-76
2021/01/25 02:08:08;;;;;;;9.75;6.30;;;3.30;99.90;;;;;;2071527;28;20030;-76
2021/01/25 02:09:09;;;;;;;8.60;6.15;;;3.30;99.90;;;;;;2080696;28;20033;-75
2021/01/25 02:10:12;;;;;;;8.02;6.07;;;3.30;99.90;;;;;;2080412;28;21133;-75
2021/01/25 02:11:13;;;;;;;8.23;5.80;;;3.30;99.90;;;;;;2078271;28;20033;-75
2021/01/25 02:12:16;;;;;;;10.43;6.55;;;3.20;99.90;;;;;;2077364;28;20122;-74
2021/01/25 02:13:18;;;;;;;9.77;6.60;;;3.30;99.90;;;;;;2080491;28;20025;-76
2021/01/25 02:14:20;;;;;;;8.73;5.90;;;3.20;99.90;;;;;;2080146;28;20025;-76
2021/01/25 02:15:22;;;;;;;10.45;6.38;;;3.20;99.90;;;;;;2080039;28;20025;-74
2021/01/25 02:16:22;;;;;;;10.23;6.95;;;3.30;99.90;;;;;;2080295;28;20420;-75
2021/01/25 02:17:23;;;;;;;9.05;5.88;;;3.30;99.90;;;;;;2079741;28;20064;-77
2021/01/25 02:18:23;;;;;;;8.48;6.63;;;3.20;99.90;;;;;;2079995;28;20067;-75
2021/01/25 02:19:51;;;;;;;7.80;6.53;;;3.30;99.90;;;;;;2080465;28;20036;-77
2021/01/25 02:20:51;;;;;;;9.25;6.32;;;3.30;99.90;;;;;;2071756;28;20022;-77
2021/01/25 02:22:22;;;;;;;9.43;6.53;;;3.20;99.90;;;;;;2071317;28;20133;-75
2021/01/25 02:23:23;;;;;;;7.85;6.18;;;3.20;99.90;;;;;;2079480;28;20037;-75
2021/01/25 02:24:34;;;;;;;8.02;6.25;;;3.10;99.90;;;;;;2080126;28;20475;-77
2021/01/25 02:26:12;;;;;;;6.95;6.20;;;3.10;99.90;;;;;;2080316;28;20051;-76
2021/01/25 02:27:32;;;;;;;7.55;5.68;;;3.10;99.90;;;;;;2071731;28;20030;-76
2021/01/25 02:28:36;;;;;;;9.32;6.30;;;3.00;99.90;;;;;;2079510;28;20159;-76
2021/01/25 02:29:36;;;;;;;10.45;5.75;;;3.00;99.90;;;;;;2080328;28;20048;-76
2021/01/25 02:30:38;;;;;;;8.40;5.80;;;3.00;99.90;;;;;;2080310;28;20041;-79
2021/01/25 02:31:39;;;;;;;7.82;6.63;;;3.00;99.90;;;;;;2080295;28;20037;-76
2021/01/25 02:32:41;;;;;;;7.47;6.53;;;3.00;99.90;;;;;;2080218;28;20049;-77
2021/01/25 02:33:47;;;;;;;7.97;6.47;;;3.00;99.90;;;;;;2080029;28;20810;-75
2021/01/25 02:34:48;;;;;;;10.55;7.25;;;3.00;99.90;;;;;;2080089;28;20026;-76
2021/01/25 02:35:49;;;;;;;6.97;5.88;;;3.00;99.90;;;;;;2080032;28;20013;-78
2021/01/25 02:36:51;;;;;;;8.63;6.28;;;3.00;99.90;;;;;;2079808;28;20033;-77
2021/01/25 02:37:54;;;;;;;11.80;6.28;;;3.00;99.90;;;;;;2080213;28;20038;-75
2021/01/25 02:38:56;;;;;;;11.18;6.30;;;3.00;99.90;;;;;;2071254;28;20779;-77
2021/01/25 02:39:57;;;;;;;11.68;6.43;;;3.00;99.90;;;;;;2063577;28;20030;-76
2021/01/25 02:40:59;;;;;;;8.07;6.68;;;3.00;99.90;;;;;;2067193;28;20041;-75
2021/01/25 02:42:01;;;;;;;6.88;6.18;;;3.00;99.90;;;;;;2071662;28;20030;-75
2021/01/25 02:43:02;;;;;;;7.65;6.03;;;3.10;99.90;;;;;;2071365;28;20558;-75
2021/01/25 02:44:04;;;;;;;11.32;5.97;;;3.10;99.90;;;;;;2071028;28;20112;-76
2021/01/25 02:45:06;;;;;;;7.93;6.13;;;3.00;99.90;;;;;;2071624;28;20030;-75
2021/01/25 02:46:12;;;;;;;6.43;5.60;;;3.00;99.90;;;;;;2079493;28;20029;-76
2021/01/25 02:47:16;;;;;;;7.28;5.90;;;3.00;99.90;;;;;;2078514;28;20085;-76
2021/01/25 02:48:18;;;;;;;7.65;6.00;;;3.10;99.90;;;;;;2079841;28;20040;-76
2021/01/25 02:49:18;;;;;;;8.25;6.68;;;3.00;99.90;;;;;;2080013;28;20030;-78
2021/01/25 02:50:19;;;;;;;9.98;6.22;;;3.10;99.90;;;;;;2071403;28;20124;-75
2021/01/25 02:51:20;;;;;;;7.18;5.97;;;3.10;99.90;;;;;;2071521;28;20047;-77
2021/01/25 02:52:20;;;;;;;8.43;6.40;;;3.10;99.90;;;;;;2071011;28;20033;-77
2021/01/25 02:53:21;;;;;;;7.10;6.25;;;3.00;99.90;;;;;;2071513;28;20948;-77
2021/01/25 02:54:22;;;;;;;11.77;5.97;;;3.10;99.90;;;;;;2079892;28;20103;-75
2021/01/25 02:55:22;;;;;;;11.30;6.35;;;3.00;99.90;;;;;;2079485;28;20521;-76
2021/01/25 02:56:23;;;;;;;7.03;5.93;;;3.10;99.90;;;;;;2080203;28;20033;-77
2021/01/25 02:57:25;;;;;;;8.23;5.97;;;3.10;99.90;;;;;;2078622;28;20815;-76
2021/01/25 02:58:26;;;;;;;7.40;5.95;;;3.10;99.90;;;;;;2070817;28;20038;-77
2021/01/25 02:59:27;;;;;;;6.43;5.82;;;3.10;99.90;;;;;;2071057;28;20089;-75
2021/01/25 03:00:27;;;;;;;8.73;6.25;;;3.10;99.90;;;;;;2079543;28;20026;-78
2021/01/25 03:01:28;;;;;;;7.15;6.03;;;3.10;99.90;;;;;;2072342;28;20180;-76
2021/01/25 03:02:29;;;;;;;7.00;5.75;;;3.10;99.90;;;;;;2064548;28;20022;-77
2021/01/25 03:03:34;;;;;;;10.00;6.40;;;3.10;99.90;;;;;;2072799;28;20517;-75
2021/01/25 03:04:36;;;;;;;11.63;5.45;;;3.10;99.90;;;;;;2081653;28;20461;-77
2021/01/25 03:05:37;;;;;;;6.85;6.07;;;3.10;99.90;;;;;;2081380;28;20032;-75
2021/01/25 03:06:38;;;;;;;7.85;6.20;;;3.10;99.90;;;;;;2081072;28;20108;-75
2021/01/25 03:07:38;;;;;;;7.13;6.35;;;3.00;99.90;;;;;;2071982;28;20556;-75
2021/01/25 03:08:40;;;;;;;9.18;6.50;;;3.00;99.90;;;;;;2072374;28;20014;-75
2021/01/25 03:09:41;;;;;;;8.50;6.13;;;3.10;99.90;;;;;;2081318;28;20094;-76
2021/01/25 03:10:41;;;;;;;7.93;6.75;;;3.10;99.90;;;;;;2072472;28;20401;-75
2021/01/25 03:11:42;;;;;;;10.38;6.28;;;3.00;99.90;;;;;;2072545;28;20030;-77
2021/01/25 03:12:43;;;;;;;9.15;6.18;;;3.00;99.90;;;;;;2081371;28;20499;-76
2021/01/25 03:13:44;;;;;;;8.60;6.95;;;3.00;99.90;;;;;;2081248;28;20030;-75
2021/01/25 03:14:45;;;;;;;9.35;6.53;;;3.00;99.90;;;;;;2074985;28;20026;-74
2021/01/25 03:15:46;;;;;;;7.55;6.32;;;3.00;99.90;;;;;;2072415;28;20493;-74
2021/01/25 03:16:46;;;;;;;9.88;6.40;;;3.00;99.90;;;;;;2071872;28;20045;-74
2021/01/25 03:17:47;;;;;;;7.38;5.40;;;3.00;99.90;;;;;;2072552;28;20026;-77
2021/01/25 03:18:48;;;;;;;8.75;6.03;;;3.00;99.90;;;;;;2072411;28;20028;-76
2021/01/25 03:19:48;;;;;;;7.20;6.00;;;2.90;99.90;;;;;;2081307;28;20064;-76
2021/01/25 03:20:50;;;;;;;7.80;6.20;;;2.90;99.90;;;;;;2081443;28;20034;-77
2021/01/25 03:21:53;;;;;;;7.40;5.20;;;3.00;99.90;;;;;;2081439;28;20064;-77
2021/01/25 03:22:54;;;;;;;8.15;6.22;;;3.00;99.90;;;;;;2081440;28;20021;-76
2021/01/25 03:23:55;;;;;;;6.88;6.10;;;2.90;99.90;;;;;;2081307;28;20025;-76
2021/01/25 03:24:55;;;;;;;10.02;6.35;;;3.00;99.90;;;;;;2081368;28;20358;-78
2021/01/25 03:25:56;;;;;;;7.45;5.45;;;3.00;99.90;;;;;;2072596;28;20060;-75
2021/01/25 03:26:56;;;;;;;7.95;6.78;;;3.00;99.90;;;;;;2071565;28;20108;-76
2021/01/25 03:27:57;;;;;;;7.00;6.25;;;2.90;99.90;;;;;;2081259;28;20048;-77
2021/01/25 03:28:57;;;;;;;9.13;6.05;;;2.90;99.90;;;;;;2081179;28;20112;-76
2021/01/25 03:29:58;;;;;;;8.13;6.40;;;2.90;99.90;;;;;;2072593;28;20063;-76
2021/01/25 03:30:59;;;;;;;7.05;6.35;;;2.90;99.90;;;;;;2072636;28;20050;-76
2021/01/25 03:32:00;;;;;;;10.13;6.20;;;2.90;99.90;;;;;;2079556;28;20018;-77
2021/01/25 03:33:01;;;;;;;8.25;6.35;;;3.00;99.90;;;;;;2081166;28;20079;-76
2021/01/25 03:34:03;;;;;;;7.10;6.40;;;3.00;99.90;;;;;;2072219;28;20018;-75
2021/01/25 03:35:06;;;;;;;10.88;6.93;;;2.90;99.90;;;;;;2072538;28;20564;-76
2021/01/25 03:36:07;;;;;;;9.07;7.00;;;3.00;99.90;;;;;;2080979;28;20057;-76
2021/01/25 03:37:07;;;;;;;11.77;7.57;;;2.90;99.90;;;;;;2072039;28;20441;-75
2021/01/25 03:38:08;;;;;;;7.72;6.60;;;2.90;99.90;;;;;;2071907;28;20060;-77
2021/01/25 03:39:08;;;;;;;9.38;7.07;;;2.90;99.90;;;;;;2072534;28;20026;-77
2021/01/25 03:40:09;;;;;;;9.65;6.95;;;2.90;99.90;;;;;;2081218;28;20025;-75
2021/01/25 03:41:10;;;;;;;10.13;6.82;;;2.90;99.90;;;;;;2081188;28;20021;-76
2021/01/25 03:42:11;;;;;;;10.43;7.30;;;2.80;99.90;;;;;;2081213;28;20022;-75
2021/01/25 03:43:14;;;;;;;9.35;7.60;;;2.80;99.90;;;;;;2080973;28;20072;-78
2021/01/25 03:44:16;;;;;;;9.00;6.70;;;2.80;99.90;;;;;;2081041;28;20018;-75
2021/01/25 03:45:17;;;;;;;9.00;6.35;;;2.80;99.90;;;;;;2081255;28;20101;-76
2021/01/25 03:46:17;;;;;;;12.10;8.48;;;2.80;99.90;;;;;;2080839;28;20026;-76
2021/01/25 03:47:18;;;;;;;9.07;8.15;;;2.80;99.90;;;;;;2080169;28;20084;-76
2021/01/25 03:48:19;;;;;;;9.82;8.63;;;2.80;99.90;;;;;;2072018;28;20048;-76
2021/01/25 03:49:19;;;;;;;9.45;7.88;;;2.80;99.90;;;;;;2072223;28;20125;-76
2021/01/25 03:50:20;;;;;;;17.42;9.48;;;2.80;99.90;;;;;;2080872;28;20087;-75
2021/01/25 03:51:21;;;;;;;11.13;8.55;;;2.80;99.90;;;;;;2072375;28;20037;-76
2021/01/25 03:52:22;;;;;;;12.93;8.55;;;2.80;99.90;;;;;;2075715;28;20449;-76
2021/01/25 03:53:23;;;;;;;10.43;8.32;;;2.80;99.90;;;;;;2080860;28;20123;-76
2021/01/25 03:54:23;;;;;;;11.60;8.95;;;2.80;99.90;;;;;;2080915;28;20033;-75
2021/01/25 03:55:24;;;;;;;10.00;8.38;;;2.80;99.90;;;;;;2081172;28;20098;-77
2021/01/25 03:56:25;;;;;;;12.10;8.93;;;2.80;99.90;;;;;;2080839;28;20029;-78
2021/01/25 03:57:25;;;;;;;14.55;8.73;;;2.90;99.90;;;;;;2080573;28;20105;-77
2021/01/25 03:58:26;;;;;;;12.70;8.88;;;2.80;99.90;;;;;;2080445;28;20053;-78
2021/01/25 03:59:27;;;;;;;13.05;8.88;;;2.80;99.90;;;;;;2081464;28;20108;-76
2021/01/25 04:00:27;;;;;;;11.65;8.93;;;2.80;99.90;;;;;;2080919;28;20103;-75
2021/01/25 04:01:28;;;;;;;10.77;9.68;;;2.90;99.90;;;;;;2080653;28;20021;-75
2021/01/25 04:02:28;;;;;;;10.27;7.82;;;2.80;99.90;;;;;;2070466;28;20121;-75
2021/01/25 04:03:29;;;;;;;10.13;8.73;;;2.80;99.90;;;;;;2072459;28;20017;-77
2021/01/25 04:04:30;;;;;;;11.32;8.93;;;2.80;99.90;;;;;;2081255;28;20017;-77
2021/01/25 04:05:30;;;;;;;9.93;8.90;;;2.80;99.90;;;;;;2081415;28;20124;-76
2021/01/25 04:06:31;;;;;;;10.98;8.45;;;2.80;99.90;;;;;;2080558;28;20057;-76
2021/01/25 04:07:31;;;;;;;12.43;9.07;;;2.80;99.90;;;;;;2078697;28;20754;-75
2021/01/25 04:08:32;;;;;;;14.23;9.70;;;2.80;99.90;;;;;;2070366;28;20029;-76
2021/01/25 04:09:33;;;;;;;11.13;8.38;;;2.80;99.90;;;;;;2071438;28;20470;-75
2021/01/25 04:10:33;;;;;;;12.10;9.18;;;2.80;99.90;;;;;;2079606;28;20021;-75
2021/01/25 04:11:34;;;;;;;12.77;7.95;;;2.80;99.90;;;;;;2079272;28;20026;-77
2021/01/25 04:12:35;;;;;;;11.10;8.38;;;2.80;99.90;;;;;;2079567;28;20119;-76
2021/01/25 04:13:35;;;;;;;11.25;8.88;;;2.80;99.90;;;;;;2070543;28;20045;-75
2021/01/25 04:14:36;;;;;;;12.70;9.15;;;2.80;99.90;;;;;;2062538;28;20026;-77
2021/01/25 04:15:36;;;;;;;13.65;9.13;;;2.80;99.90;;;;;;2070725;28;20060;-76
2021/01/25 04:16:38;;;;;;;11.80;8.90;;;2.80;99.90;;;;;;2070776;28;20674;-75
2021/01/25 04:17:38;;;;;;;11.18;8.60;;;2.80;99.90;;;;;;2070475;28;20037;-76
2021/01/25 04:18:39;;;;;;;11.27;8.68;;;2.80;99.90;;;;;;2078754;28;20605;-75
2021/01/25 04:19:40;;;;;;;12.65;8.93;;;2.70;99.90;;;;;;2079690;28;20013;-76
2021/01/25 04:20:40;;;;;;;11.00;9.02;;;2.70;99.90;;;;;;2071115;28;20022;-76
2021/01/25 04:21:41;;;;;;;13.77;8.35;;;2.70;99.90;;;;;;2071140;28;20028;-76
2021/01/25 04:22:41;;;;;;;12.82;9.00;;;2.70;99.90;;;;;;2079430;28;20025;-75
2021/01/25 04:23:42;;;;;;;11.20;8.80;;;2.70;99.90;;;;;;2070401;28;20024;-75
2021/01/25 04:24:42;;;;;;;11.18;8.43;;;2.70;99.90;;;;;;2070998;28;20367;-76
2021/01/25 04:25:43;;;;;;;9.43;8.25;;;2.70;99.90;;;;;;2070689;28;20470;-75
2021/01/25 04:26:45;;;;;;;12.07;8.77;;;2.70;99.90;;;;;;2070539;28;20026;-75
2021/01/25 04:27:45;;;;;;;10.52;8.73;;;2.70;99.90;;;;;;2079701;28;20101;-76
2021/01/25 04:28:46;;;;;;;11.45;8.75;;;2.70;99.90;;;;;;2069849;28;20036;-77
2021/01/25 04:29:46;;;;;;;12.38;9.02;;;2.60;99.90;;;;;;2062697;28;20049;-75
2021/01/25 04:30:47;;;;;;;11.13;8.88;;;2.60;99.90;;;;;;2071154;28;20041;-76
2021/01/25 04:31:47;;;;;;;12.45;9.38;;;2.60;99.90;;;;;;2079753;28;20185;-76
2021/01/25 04:32:48;;;;;;;9.82;8.23;;;2.60;99.90;;;;;;2079771;28;20479;-77
2021/01/25 04:33:48;;;;;;;13.32;8.95;;;2.70;99.90;;;;;;2070405;28;20084;-75
2021/01/25 04:34:49;;;;;;;12.10;7.97;;;2.60;99.90;;;;;;2068366;28;20105;-77
2021/01/25 04:35:50;;;;;;;11.43;8.30;;;2.70;99.90;;;;;;2070587;28;20021;-75
2021/01/25 04:36:50;;;;;;;9.25;8.20;;;2.60;99.90;;;;;;2079225;28;20030;-76
2021/01/25 04:37:51;;;;;;;14.38;8.68;;;2.60;99.90;;;;;;2079368;28;20092;-76
2021/01/25 04:38:51;;;;;;;11.60;8.80;;;2.60;99.90;;;;;;2070356;28;20900;-77
2021/01/25 04:39:52;;;;;;;13.35;8.95;;;2.70;99.90;;;;;;2070729;28;20030;-76
2021/01/25 04:40:53;;;;;;;11.82;9.32;;;2.70;99.90;;;;;;2079370;28;20032;-78
2021/01/25 04:41:53;;;;;;;10.93;8.65;;;2.70;99.90;;;;;;2079918;28;20033;-76
2021/01/25 04:42:54;;;;;;;14.60;9.02;;;2.60;99.90;;;;;;2079677;28;20377;-75
2021/01/25 04:43:57;;;;;;;12.32;9.48;;;2.70;99.90;;;;;;2079286;28;20104;-77
2021/01/25 04:44:58;;;;;;;9.98;8.70;;;2.70;99.90;;;;;;2079713;28;20104;-76
2021/01/25 04:45:59;;;;;;;14.23;9.55;;;2.70;99.90;;;;;;2070180;28;20026;-75
2021/01/25 04:47:02;;;;;;;13.73;9.10;;;2.70;99.90;;;;;;2070290;28;20101;-76
2021/01/25 04:48:03;;;;;;;11.98;8.98;;;2.70;99.90;;;;;;2069765;28;20492;-76
2021/01/25 04:49:04;;;;;;;11.02;9.15;;;2.70;99.90;;;;;;2071295;28;20067;-79
2021/01/25 04:50:06;;;;;;;12.80;10.07;;;2.70;99.90;;;;;;2062653;28;20030;-78
2021/01/25 04:51:06;;;;;;;12.15;8.85;;;2.70;99.90;;;;;;2060706;28;20027;-76
2021/01/25 04:52:10;;;;;;;11.20;9.60;;;2.70;99.90;;;;;;2070533;28;20048;-77
2021/01/25 04:53:11;;;;;;;12.55;9.43;;;2.70;99.90;;;;;;2079290;28;20518;-77
2021/01/25 04:54:13;;;;;;;10.77;9.10;;;2.70;99.90;;;;;;2078860;28;20053;-76
2021/01/25 04:55:15;;;;;;;11.27;8.80;;;2.70;99.90;;;;;;2079569;28;20153;-78
2021/01/25 04:56:16;;;;;;;11.85;9.35;;;2.70;99.90;;;;;;2071290;28;20029;-77
2021/01/25 04:57:17;;;;;;;12.10;9.32;;;2.70;99.90;;;;;;2078373;28;20385;-76
2021/01/25 04:58:18;;;;;;;12.73;9.30;;;2.70;99.90;;;;;;2078948;28;20060;-76
2021/01/25 04:59:20;;;;;;;12.43;9.25;;;2.70;99.90;;;;;;2070652;28;20057;-77
2021/01/25 05:00:21;;;;;;;13.80;9.80;;;2.70;99.90;;;;;;2062260;28;20033;-76
2021/01/25 05:01:23;;;;;;;10.90;8.80;;;2.70;99.90;;;;;;2067041;28;20034;-77
2021/01/25 05:02:23;;;;;;;12.27;8.93;;;2.70;99.90;;;;;;2070544;28;20490;-78
2021/01/25 05:03:24;;;;;;;13.07;10.30;;;2.70;99.90;;;;;;2079170;28;20026;-77
2021/01/25 05:04:25;;;;;;;12.73;9.70;;;2.70;99.90;;;;;;2079251;28;20045;-74
2021/01/25 05:05:25;;;;;;;12.52;8.95;;;2.70;99.90;;;;;;2070675;28;20373;-76
2021/01/25 05:06:26;;;;;;;14.55;9.40;;;2.70;99.90;;;;;;2070412;28;20030;-74
2021/01/25 05:07:27;;;;;;;11.50;9.70;;;2.70;99.90;;;;;;2075909;28;20072;-79
2021/01/25 05:08:28;;;;;;;12.90;8.90;;;2.70;99.90;;;;;;2069325;28;20410;-76
2021/01/25 05:09:29;;;;;;;13.85;9.70;;;2.70;99.90;;;;;;2070664;28;20033;-76
2021/01/25 05:10:32;;;;;;;11.63;9.50;;;2.70;99.90;;;;;;2078179;28;20443;-77
2021/01/25 05:11:32;;;;;;;11.20;8.85;;;2.70;99.90;;;;;;2079396;28;20084;-75
2021/01/25 05:12:42;;;;;;;11.63;10.38;;;2.70;99.90;;;;;;2079202;28;20026;-77
2021/01/25 05:13:43;;;;;;;10.50;8.95;;;2.70;99.90;;;;;;2070722;28;20085;-77
2021/01/25 05:14:44;;;;;;;13.32;9.23;;;2.70;99.90;;;;;;2070098;28;20021;-76
2021/01/25 05:15:49;;;;;;;10.70;8.40;;;2.70;99.90;;;;;;2079419;28;20053;-76
2021/01/25 05:16:49;;;;;;;11.27;8.75;;;2.70;99.90;;;;;;2069901;28;20465;-77
2021/01/25 05:17:50;;;;;;;12.23;9.50;;;2.70;99.90;;;;;;2070899;28;20124;-76
2021/01/25 05:18:55;;;;;;;13.05;10.40;;;2.70;99.90;;;;;;2069554;28;20034;-77
2021/01/25 05:19:57;;;;;;;10.20;9.18;;;2.70;99.90;;;;;;2070307;28;20108;-78
2021/01/25 05:20:58;;;;;;;13.00;9.43;;;2.70;99.90;;;;;;2071182;28;20026;-77